createdAt,value
2023-05-04T00:00:11.107Z,70.35
2023-05-04T00:01:11.120Z,70.42
2023-05-04T00:02:11.096Z,70.06
2023-05-04T00:03:11.121Z,70.11
2023-05-04T00:04:11.252Z,70.08
2023-05-04T00:05:11.071Z,70.11
2023-05-04T00:06:11.073Z,69.89
2023-05-04T00:07:11.103Z,69.90
2023-05-04T00:08:11.072Z,70.31
2023-05-04T00:09:11.078Z,70.13
2023-05-04T00:10:11.076Z,70.31
2023-05-04T00:11:11.073Z,70.33
2023-05-04T00:12:11.077Z,70.73
2023-05-04T00:13:11.263Z,70.84
2023-05-04T00:14:11.076Z,71.07
2023-05-04T00:15:11.074Z,70.86
2023-05-04T00:16:11.303Z,71.09
2023-05-04T00:17:11.078Z,70.71
2023-05-04T00:18:11.082Z,70.95
2023-05-04T00:19:11.102Z,71.47
2023-05-04T00:20:11.074Z,71.66
2023-05-04T00:21:11.081Z,71.59
2023-05-04T00:22:11.076Z,71.55
2023-05-04T00:23:11.079Z,71.61
2023-05-04T00:24:11.074Z,71.54
2023-05-04T00:25:11.082Z,71.67
2023-05-04T00:26:11.073Z,71.33
2023-05-04T00:27:11.098Z,71.66
2023-05-04T00:28:11.082Z,71.65
2023-05-04T00:29:11.084Z,71.59
2023-05-04T00:30:11.123Z,71.98
2023-05-04T00:31:11.122Z,71.82
2023-05-04T00:32:11.072Z,71.68
2023-05-04T00:33:11.140Z,72.00
2023-05-04T00:34:11.099Z,71.69
2023-05-04T00:35:11.076Z,71.52
2023-05-04T00:36:11.080Z,71.36
2023-05-04T00:37:11.095Z,71.29
2023-05-04T00:38:11.075Z,71.79
2023-05-04T00:39:11.085Z,71.81
2023-05-04T00:40:11.092Z,71.38
2023-05-04T00:41:11.078Z,71.69
2023-05-04T00:42:11.100Z,71.56
2023-05-04T00:43:11.091Z,71.72
2023-05-04T00:44:11.092Z,71.71
2023-05-04T00:45:11.080Z,72.24
2023-05-04T00:46:11.125Z,72.12
2023-05-04T00:47:11.136Z,72.15
2023-05-04T00:48:11.143Z,72.20
2023-05-04T00:49:11.091Z,72.15
2023-05-04T00:50:11.084Z,72.42
2023-05-04T00:51:11.077Z,72.20
2023-05-04T00:52:11.094Z,72.21
2023-05-04T00:53:11.086Z,72.16
2023-05-04T00:54:11.079Z,72.17
2023-05-04T00:55:11.090Z,72.41
2023-05-04T00:56:11.088Z,72.54
2023-05-04T00:57:11.078Z,72.38
2023-05-04T00:58:11.084Z,72.45
2023-05-04T00:59:11.080Z,72.59
2023-05-04T01:00:11.087Z,73.35
2023-05-04T01:01:11.140Z,73.20
2023-05-04T01:02:11.062Z,73.18
2023-05-04T01:03:11.162Z,73.12
2023-05-04T01:04:11.197Z,73.09
2023-05-04T01:05:11.077Z,73.23
2023-05-04T01:06:19.062Z,73.18
2023-05-04T01:07:19.066Z,72.97
2023-05-04T01:08:18.070Z,73.09
2023-05-04T01:09:20.063Z,73.09
2023-05-04T01:10:20.075Z,73.00
2023-05-04T01:11:17.060Z,73.03
2023-05-04T01:12:18.080Z,73.49
2023-05-04T01:13:13.223Z,73.57
2023-05-04T01:14:11.071Z,73.63
2023-05-04T01:15:13.082Z,73.53
2023-05-04T01:16:11.093Z,73.36
2023-05-04T01:17:11.264Z,73.66
2023-05-04T01:18:11.108Z,74.09
2023-05-04T01:19:11.067Z,74.02
2023-05-04T01:20:11.083Z,74.09
2023-05-04T01:21:11.066Z,74.08
2023-05-04T01:22:11.064Z,73.87
2023-05-04T01:23:11.068Z,74.21
2023-05-04T01:24:11.068Z,74.35
2023-05-04T01:25:11.065Z,74.25
2023-05-04T01:26:16.068Z,74.06
2023-05-04T01:27:18.088Z,73.83
2023-05-04T01:28:18.066Z,73.85
2023-05-04T01:29:17.076Z,74.26
2023-05-04T01:30:18.084Z,74.09
2023-05-04T01:31:13.100Z,74.19
2023-05-04T01:32:11.067Z,74.28
2023-05-04T01:33:11.168Z,74.36
2023-05-04T01:34:11.064Z,74.51
2023-05-04T01:35:11.069Z,75.11
2023-05-04T01:36:11.074Z,74.70
2023-05-04T01:37:11.072Z,74.44
2023-05-04T01:38:11.069Z,74.95
2023-05-04T01:39:11.071Z,75.21
2023-05-04T01:40:11.069Z,75.09
2023-05-04T01:41:11.064Z,74.88
2023-05-04T01:42:11.079Z,74.87
2023-05-04T01:43:11.064Z,74.83
2023-05-04T01:44:11.060Z,74.98
2023-05-04T01:45:11.072Z,74.97
2023-05-04T01:46:11.105Z,75.14
2023-05-04T01:47:11.059Z,75.29
2023-05-04T01:48:11.112Z,75.25
2023-05-04T01:49:11.079Z,75.17
2023-05-04T01:50:11.063Z,75.08
2023-05-04T01:51:11.067Z,75.13
2023-05-04T01:52:11.066Z,75.14
2023-05-04T01:53:11.059Z,75.64
2023-05-04T01:54:11.064Z,75.37
2023-05-04T01:55:11.069Z,76.22
2023-05-04T01:56:11.060Z,76.27
2023-05-04T01:57:11.071Z,76.25
2023-05-04T01:58:11.074Z,75.84
2023-05-04T01:59:11.066Z,76.53
2023-05-04T02:00:11.076Z,76.60
2023-05-04T02:01:11.090Z,76.36
2023-05-04T02:02:11.065Z,76.05
2023-05-04T02:03:11.137Z,76.25
2023-05-04T02:04:11.276Z,76.22
2023-05-04T02:05:11.070Z,76.08
2023-05-04T02:06:11.065Z,75.76
2023-05-04T02:07:11.145Z,76.64
2023-05-04T02:08:11.068Z,77.08
2023-05-04T02:09:11.064Z,77.47
2023-05-04T02:10:11.074Z,76.79
2023-05-04T02:11:11.071Z,76.45
2023-05-04T02:12:11.067Z,76.44
2023-05-04T02:13:11.127Z,76.78
2023-05-04T02:14:11.064Z,77.00
2023-05-04T02:15:11.079Z,76.91
2023-05-04T02:16:11.117Z,77.03
2023-05-04T02:17:11.065Z,77.66
2023-05-04T02:18:11.132Z,77.40
2023-05-04T02:19:11.071Z,76.93
2023-05-04T02:20:11.067Z,77.47
2023-05-04T02:21:11.067Z,77.48
2023-05-04T02:22:11.068Z,77.19
2023-05-04T02:23:11.068Z,76.86
2023-05-04T02:24:11.063Z,76.79
2023-05-04T02:25:11.071Z,76.91
2023-05-04T02:26:11.071Z,77.06
2023-05-04T02:27:11.063Z,77.09
2023-05-04T02:28:11.065Z,76.98
2023-05-04T02:29:11.072Z,76.93
2023-05-04T02:30:11.066Z,76.94
2023-05-04T02:31:11.084Z,77.21
2023-05-04T02:32:11.076Z,77.79
2023-05-04T02:33:11.065Z,77.45
2023-05-04T02:34:11.076Z,77.07
2023-05-04T02:35:11.074Z,77.74
2023-05-04T02:36:11.069Z,77.54
2023-05-04T02:37:11.062Z,77.17
2023-05-04T02:38:11.077Z,77.35
2023-05-04T02:39:11.075Z,77.21
2023-05-04T02:40:11.060Z,77.44
2023-05-04T02:41:11.074Z,77.28
2023-05-04T02:42:11.068Z,77.31
2023-05-04T02:43:11.071Z,77.26
2023-05-04T02:44:11.071Z,77.43
2023-05-04T02:45:11.074Z,77.31
2023-05-04T02:46:11.126Z,78.52
2023-05-04T02:47:11.067Z,79.45
2023-05-04T02:48:11.078Z,79.08
2023-05-04T02:49:11.068Z,79.36
2023-05-04T02:50:11.073Z,78.66
2023-05-04T02:51:11.080Z,78.69
2023-05-04T02:52:11.074Z,78.72
2023-05-04T02:53:11.092Z,79.18
2023-05-04T02:54:11.079Z,79.32
2023-05-04T02:55:11.071Z,79.37
2023-05-04T02:56:11.069Z,79.51
2023-05-04T02:57:11.089Z,78.97
2023-05-04T02:58:11.073Z,79.43
2023-05-04T02:59:11.072Z,79.19
2023-05-04T03:00:11.091Z,78.88
2023-05-04T03:01:11.095Z,79.40
2023-05-04T03:02:11.086Z,79.27
2023-05-04T03:03:11.074Z,78.83
2023-05-04T03:04:11.100Z,78.74
2023-05-04T03:05:11.074Z,78.48
2023-05-04T03:06:11.076Z,78.47
2023-05-04T03:07:11.084Z,78.58
2023-05-04T03:08:11.094Z,78.28
2023-05-04T03:09:11.109Z,78.82
2023-05-04T03:10:11.083Z,78.94
2023-05-04T03:11:11.094Z,78.95
2023-05-04T03:12:11.071Z,79.05
2023-05-04T03:13:11.105Z,78.79
2023-05-04T03:14:11.085Z,78.78
2023-05-04T03:15:11.073Z,78.90
2023-05-04T03:16:11.106Z,78.81
2023-05-04T03:17:11.075Z,79.35
2023-05-04T03:18:11.127Z,80.07
2023-05-04T03:19:11.080Z,80.57
2023-05-04T03:20:12.072Z,80.39
2023-05-04T03:21:11.082Z,80.17
2023-05-04T03:22:11.094Z,79.74
2023-05-04T03:23:11.076Z,79.48
2023-05-04T03:24:11.077Z,80.33
2023-05-04T03:25:11.077Z,80.89
2023-05-04T03:26:11.076Z,80.32
2023-05-04T03:27:11.072Z,80.19
2023-05-04T03:28:11.083Z,79.73
2023-05-04T03:29:11.078Z,80.78
2023-05-04T03:30:11.073Z,80.40
2023-05-04T03:31:11.074Z,80.32
2023-05-04T03:32:11.134Z,79.92
2023-05-04T03:33:11.093Z,79.73
2023-05-04T03:34:11.075Z,80.70
2023-05-04T03:35:11.076Z,80.26
2023-05-04T03:36:11.075Z,80.36
2023-05-04T03:37:11.078Z,80.07
2023-05-04T03:38:13.079Z,79.89
2023-05-04T03:39:11.075Z,79.66
2023-05-04T03:40:11.072Z,79.94
2023-05-04T03:41:11.088Z,80.07
2023-05-04T03:42:11.077Z,79.72
2023-05-04T03:43:11.075Z,79.40
2023-05-04T03:44:11.080Z,79.47
2023-05-04T03:45:11.078Z,80.00
2023-05-04T03:46:11.129Z,79.75
2023-05-04T03:47:11.106Z,80.31
2023-05-04T03:48:11.163Z,80.00
2023-05-04T03:49:11.076Z,79.81
2023-05-04T03:50:11.087Z,79.47
2023-05-04T03:51:11.078Z,80.23
2023-05-04T03:52:11.082Z,80.17
2023-05-04T03:53:11.086Z,79.76
2023-05-04T03:54:11.076Z,79.73
2023-05-04T03:55:11.079Z,79.94
2023-05-04T03:56:11.084Z,79.92
2023-05-04T03:57:11.086Z,80.45
2023-05-04T03:58:11.081Z,80.57
2023-05-04T03:59:11.092Z,80.41
2023-05-04T04:00:11.086Z,80.27
2023-05-04T04:01:11.067Z,80.42
2023-05-04T04:02:11.090Z,80.06
2023-05-04T04:03:11.225Z,79.91
2023-05-04T04:04:11.082Z,80.29
2023-05-04T04:05:11.070Z,80.16
2023-05-04T04:06:12.064Z,80.18
2023-05-04T04:07:11.063Z,80.18
2023-05-04T04:08:11.064Z,79.88
2023-05-04T04:09:11.061Z,79.91
2023-05-04T04:10:11.059Z,79.69
2023-05-04T04:11:11.078Z,79.68
2023-05-04T04:12:11.063Z,79.88
2023-05-04T04:13:11.132Z,80.03
2023-05-04T04:14:11.066Z,80.03
2023-05-04T04:15:11.070Z,80.26
2023-05-04T04:16:11.076Z,79.79
2023-05-04T04:17:11.064Z,79.96
2023-05-04T04:18:11.064Z,80.13
2023-05-04T04:19:11.067Z,80.00
2023-05-04T04:20:11.077Z,80.47
2023-05-04T04:21:11.065Z,80.27
2023-05-04T04:22:11.061Z,80.32
2023-05-04T04:23:11.063Z,80.73
2023-05-04T04:24:11.088Z,80.47
2023-05-04T04:25:11.065Z,80.68
2023-05-04T04:26:11.072Z,80.71
2023-05-04T04:27:11.071Z,80.64
2023-05-04T04:28:11.064Z,80.56
2023-05-04T04:29:11.068Z,80.25
2023-05-04T04:30:11.066Z,80.26
2023-05-04T04:31:11.134Z,80.51
2023-05-04T04:32:11.077Z,80.21
2023-05-04T04:33:11.089Z,80.74
2023-05-04T04:34:11.065Z,80.52
2023-05-04T04:35:11.081Z,80.68
2023-05-04T04:36:11.085Z,80.58
2023-05-04T04:37:11.064Z,80.93
2023-05-04T04:38:11.065Z,80.47
2023-05-04T04:39:11.097Z,80.09
2023-05-04T04:40:11.065Z,80.08
2023-05-04T04:41:11.065Z,79.83
2023-05-04T04:42:11.067Z,79.74
2023-05-04T04:43:11.063Z,80.24
2023-05-04T04:44:11.068Z,79.96
2023-05-04T04:45:11.071Z,79.85
2023-05-04T04:46:11.088Z,79.99
2023-05-04T04:47:11.068Z,80.03
2023-05-04T04:48:11.223Z,80.10
2023-05-04T04:49:11.070Z,80.07
2023-05-04T04:50:11.059Z,80.21
2023-05-04T04:51:13.069Z,80.24
2023-05-04T04:52:12.198Z,80.01
2023-05-04T04:53:11.082Z,80.04
2023-05-04T04:54:11.066Z,79.93
2023-05-04T04:55:11.080Z,80.51
2023-05-04T04:56:11.082Z,80.64
2023-05-04T04:57:11.069Z,80.24
2023-05-04T04:58:11.076Z,80.34
2023-05-04T04:59:11.081Z,80.21
2023-05-04T05:00:13.070Z,80.18
2023-05-04T05:01:11.140Z,79.97
2023-05-04T05:02:11.068Z,80.58
2023-05-04T05:03:11.134Z,80.64
2023-05-04T05:04:11.097Z,80.43
2023-05-04T05:05:11.136Z,80.50
2023-05-04T05:06:11.075Z,80.55
2023-05-04T05:07:12.082Z,80.29
2023-05-04T05:08:11.068Z,80.23
2023-05-04T05:09:11.066Z,80.22
2023-05-04T05:10:11.088Z,80.97
2023-05-04T05:11:11.077Z,80.75
2023-05-04T05:12:11.064Z,80.53
2023-05-04T05:13:11.127Z,80.51
2023-05-04T05:14:11.078Z,80.19
2023-05-04T05:15:11.069Z,80.26
2023-05-04T05:16:11.091Z,80.13
2023-05-04T05:17:11.072Z,80.20
2023-05-04T05:18:11.100Z,80.19
2023-05-04T05:19:11.076Z,80.33
2023-05-04T05:20:14.128Z,80.43
2023-05-04T05:21:11.066Z,80.49
2023-05-04T05:22:11.075Z,80.38
2023-05-04T05:23:11.080Z,80.41
2023-05-04T05:24:11.070Z,80.72
2023-05-04T05:25:11.094Z,80.47
2023-05-04T05:26:11.106Z,80.31
2023-05-04T05:27:11.077Z,80.44
2023-05-04T05:28:11.074Z,80.47
2023-05-04T05:29:11.078Z,80.26
2023-05-04T05:30:11.071Z,80.52
2023-05-04T05:31:11.142Z,80.65
2023-05-04T05:32:11.079Z,80.62
2023-05-04T05:33:11.138Z,80.46
2023-05-04T05:34:11.071Z,80.22
2023-05-04T05:35:11.080Z,79.93
2023-05-04T05:36:11.095Z,79.81
2023-05-04T05:37:11.077Z,79.73
2023-05-04T05:38:11.079Z,79.75
2023-05-04T05:39:11.074Z,79.87
2023-05-04T05:40:11.081Z,79.58
2023-05-04T05:41:11.077Z,79.75
2023-05-04T05:42:11.085Z,79.71
2023-05-04T05:43:11.077Z,79.60
2023-05-04T05:44:12.957Z,79.41
2023-05-04T05:45:11.074Z,79.34
2023-05-04T05:46:11.149Z,79.58
2023-05-04T05:47:11.069Z,79.84
2023-05-04T05:48:11.132Z,79.74
2023-05-04T05:49:11.073Z,79.56
2023-05-04T05:50:11.079Z,79.46
2023-05-04T05:51:11.075Z,79.35
2023-05-04T05:52:11.080Z,79.22
2023-05-04T05:53:11.077Z,79.15
2023-05-04T05:54:11.079Z,78.92
2023-05-04T05:55:11.075Z,79.08
2023-05-04T05:56:11.078Z,78.95
2023-05-04T05:57:11.080Z,79.09
2023-05-04T05:58:11.074Z,78.99
2023-05-04T05:59:11.072Z,79.04
2023-05-04T06:00:11.081Z,79.10
2023-05-04T06:01:11.069Z,78.92
2023-05-04T06:02:11.117Z,78.72
2023-05-04T06:03:11.206Z,78.79
2023-05-04T06:04:11.223Z,78.59
2023-05-04T06:05:11.097Z,78.75
2023-05-04T06:06:11.088Z,78.75
2023-05-04T06:07:11.081Z,78.86
2023-05-04T06:08:11.069Z,78.75
2023-05-04T06:09:11.089Z,78.84
2023-05-04T06:10:11.079Z,78.56
2023-05-04T06:11:11.075Z,78.45
2023-05-04T06:12:11.076Z,78.24
2023-05-04T06:13:11.156Z,78.23
2023-05-04T06:14:11.074Z,78.14
2023-05-04T06:15:11.070Z,77.96
2023-05-04T06:16:11.130Z,77.91
2023-05-04T06:17:11.079Z,78.03
2023-05-04T06:18:11.074Z,77.90
2023-05-04T06:19:11.082Z,78.17
2023-05-04T06:20:11.075Z,78.19
2023-05-04T06:21:11.074Z,78.19
2023-05-04T06:22:11.077Z,78.14
2023-05-04T06:23:11.081Z,78.09
2023-05-04T06:24:11.083Z,77.83
2023-05-04T06:25:11.082Z,77.98
2023-05-04T06:26:11.074Z,78.10
2023-05-04T06:27:11.086Z,78.12
2023-05-04T06:28:11.080Z,77.89
2023-05-04T06:29:11.079Z,77.70
2023-05-04T06:30:11.081Z,77.53
2023-05-04T06:31:11.113Z,77.51
2023-05-04T06:32:11.311Z,77.56
2023-05-04T06:33:11.145Z,77.66
2023-05-04T06:34:11.076Z,77.77
2023-05-04T06:35:11.075Z,77.62
2023-05-04T06:36:11.075Z,77.44
2023-05-04T06:37:11.958Z,77.52
2023-05-04T06:38:11.075Z,77.55
2023-05-04T06:39:11.074Z,77.46
2023-05-04T06:40:11.418Z,77.32
2023-05-04T06:41:11.072Z,77.29
2023-05-04T06:42:11.074Z,77.22
2023-05-04T06:43:11.076Z,77.10
2023-05-04T06:44:11.081Z,77.13
2023-05-04T06:45:11.078Z,76.95
2023-05-04T06:46:11.099Z,76.92
2023-05-04T06:47:11.085Z,76.86
2023-05-04T06:48:11.124Z,76.77
2023-05-04T06:49:11.084Z,76.67
2023-05-04T06:50:11.094Z,76.85
2023-05-04T06:51:11.082Z,76.69
2023-05-04T06:52:11.086Z,76.67
2023-05-04T06:53:11.076Z,77.45
2023-05-04T06:54:11.083Z,77.22
2023-05-04T06:55:11.085Z,76.90
2023-05-04T06:56:11.097Z,76.71
2023-05-04T06:57:11.117Z,77.20
2023-05-04T06:58:11.074Z,77.00
2023-05-04T06:59:11.088Z,76.75
2023-05-04T07:00:11.087Z,76.82
2023-05-04T07:01:12.118Z,76.62
2023-05-04T07:02:11.063Z,76.77
2023-05-04T07:03:11.209Z,76.42
2023-05-04T07:04:11.126Z,76.42
2023-05-04T07:05:11.063Z,76.12
2023-05-04T07:06:11.069Z,76.29
2023-05-04T07:07:11.068Z,76.04
2023-05-04T07:08:11.076Z,76.02
2023-05-04T07:09:11.074Z,75.97
2023-05-04T07:10:11.062Z,75.85
2023-05-04T07:11:11.079Z,76.57
2023-05-04T07:12:11.066Z,76.54
2023-05-04T07:13:11.195Z,76.66
2023-05-04T07:14:11.068Z,76.76
2023-05-04T07:15:11.071Z,76.52
2023-05-04T07:16:11.077Z,76.18
2023-05-04T07:17:11.057Z,75.97
2023-05-04T07:18:11.102Z,76.22
2023-05-04T07:19:11.106Z,75.89
2023-05-04T07:20:11.089Z,75.83
2023-05-04T07:22:11.065Z,75.30
2023-05-04T07:23:11.070Z,75.09
2023-05-04T07:24:11.070Z,75.12
2023-05-04T07:25:11.068Z,75.04
2023-05-04T07:26:11.060Z,74.94
2023-05-04T07:27:11.068Z,74.81
2023-05-04T07:28:11.062Z,74.83
2023-05-04T07:29:11.059Z,75.01
2023-05-04T07:30:11.061Z,74.60
2023-05-04T07:31:11.068Z,74.28
2023-05-04T07:32:11.141Z,73.95
2023-05-04T07:33:11.078Z,73.73
2023-05-04T07:34:11.087Z,73.66
2023-05-04T07:35:11.065Z,73.55
2023-05-04T07:36:11.061Z,73.76
2023-05-04T07:37:11.072Z,74.14
2023-05-04T07:38:11.062Z,74.04
2023-05-04T07:39:11.065Z,73.89
2023-05-04T07:40:11.074Z,73.98
2023-05-04T07:41:11.060Z,74.03
2023-05-04T07:42:11.069Z,73.83
2023-05-04T07:43:11.069Z,73.76
2023-05-04T07:44:12.059Z,73.68
2023-05-04T07:45:11.066Z,73.39
2023-05-04T07:46:11.097Z,73.26
2023-05-04T07:47:11.063Z,73.07
2023-05-04T07:48:11.130Z,73.16
2023-05-04T07:49:11.065Z,72.89
2023-05-04T07:50:11.064Z,72.69
2023-05-04T07:51:13.061Z,72.72
2023-05-04T07:52:11.074Z,72.55
2023-05-04T07:53:11.066Z,72.31
2023-05-04T07:54:11.063Z,72.23
2023-05-04T07:55:11.070Z,71.86
2023-05-04T07:56:11.065Z,71.80
2023-05-04T07:57:11.063Z,72.21
2023-05-04T07:58:11.064Z,72.03
2023-05-04T07:59:11.067Z,72.09
2023-05-04T08:00:11.062Z,71.77
2023-05-04T08:01:11.082Z,71.41
2023-05-04T08:02:11.094Z,71.45
2023-05-04T08:03:11.171Z,71.15
2023-05-04T08:04:11.068Z,70.90
2023-05-04T08:05:11.075Z,70.90
2023-05-04T08:06:11.067Z,70.68
2023-05-04T08:07:11.070Z,70.46
2023-05-04T08:08:11.075Z,70.29
2023-05-04T08:09:11.073Z,70.16
2023-05-04T08:10:11.068Z,69.98
2023-05-04T08:11:19.065Z,70.05
2023-05-04T08:12:13.081Z,70.03
2023-05-04T08:13:11.148Z,69.91
2023-05-04T08:14:11.070Z,69.49
2023-05-04T08:15:11.068Z,69.41
2023-05-04T08:16:11.080Z,69.10
2023-05-04T08:17:11.070Z,69.23
2023-05-04T08:18:11.069Z,68.83
2023-05-04T08:19:11.072Z,68.79
2023-05-04T08:20:11.072Z,68.47
2023-05-04T08:21:11.079Z,68.47
2023-05-04T08:22:11.064Z,68.04
2023-05-04T08:23:11.079Z,67.68
2023-05-04T08:24:11.080Z,67.31
2023-05-04T08:25:11.072Z,67.61
2023-05-04T08:26:11.070Z,67.35
2023-05-04T08:27:12.072Z,67.21
2023-05-04T08:28:11.071Z,66.94
2023-05-04T08:29:11.097Z,67.09
2023-05-04T08:30:11.070Z,67.10
2023-05-04T08:31:11.142Z,67.02
2023-05-04T08:32:11.074Z,67.07
2023-05-04T08:33:11.104Z,67.53
2023-05-04T08:34:11.073Z,67.09
2023-05-04T08:35:11.084Z,67.29
2023-05-04T08:36:11.077Z,67.01
2023-05-04T08:37:11.077Z,67.09
2023-05-04T08:38:11.076Z,67.14
2023-05-04T08:39:11.089Z,66.99
2023-05-04T08:40:11.079Z,66.87
2023-05-04T08:41:11.105Z,67.00
2023-05-04T08:42:11.086Z,66.64
2023-05-04T08:43:11.075Z,66.77
2023-05-04T08:44:11.076Z,66.39
2023-05-04T08:45:11.085Z,66.42
2023-05-04T08:46:11.097Z,66.11
2023-05-04T08:47:11.080Z,66.43
2023-05-04T08:48:11.096Z,66.22
2023-05-04T08:49:11.078Z,66.35
2023-05-04T08:50:11.084Z,65.87
2023-05-04T08:51:11.084Z,65.50
2023-05-04T08:52:11.075Z,65.88
2023-05-04T08:53:13.101Z,65.28
2023-05-04T08:54:11.128Z,64.93
2023-05-04T08:55:13.091Z,65.00
2023-05-04T08:56:12.073Z,65.04
2023-05-04T08:57:11.081Z,64.73
2023-05-04T08:58:12.091Z,64.27
2023-05-04T08:59:17.075Z,63.91
2023-05-04T09:00:11.080Z,63.78
2023-05-04T09:01:11.163Z,63.44
2023-05-04T09:02:13.155Z,63.19
2023-05-04T09:03:11.193Z,62.89
2023-05-04T09:04:11.094Z,62.90
2023-05-04T09:05:12.087Z,62.96
2023-05-04T09:06:11.092Z,62.72
2023-05-04T09:07:11.084Z,62.36
2023-05-04T09:08:11.080Z,62.07
2023-05-04T09:09:11.083Z,61.88
2023-05-04T09:10:11.085Z,61.60
2023-05-04T09:11:11.087Z,61.60
2023-05-04T09:12:11.091Z,61.34
2023-05-04T09:13:11.179Z,61.33
2023-05-04T09:14:11.081Z,61.44
2023-05-04T09:15:15.076Z,61.27
2023-05-04T09:16:12.758Z,61.81
2023-05-04T09:17:15.082Z,61.75
2023-05-04T09:18:11.088Z,61.44
2023-05-04T09:19:17.093Z,60.94
2023-05-04T09:20:11.088Z,60.82
2023-05-04T09:21:11.082Z,60.90
2023-05-04T09:22:15.074Z,60.95
2023-05-04T09:23:11.116Z,60.80
2023-05-04T09:24:11.081Z,60.62
2023-05-04T09:25:14.080Z,61.16
2023-05-04T09:26:11.080Z,61.81
2023-05-04T09:27:13.092Z,61.75
2023-05-04T09:28:11.079Z,62.00
2023-05-04T09:29:13.098Z,62.23
2023-05-04T09:30:12.083Z,62.00
2023-05-04T09:31:11.122Z,61.64
2023-05-04T09:32:13.174Z,61.25
2023-05-04T09:33:11.082Z,61.06
2023-05-04T09:34:11.102Z,60.71
2023-05-04T09:35:16.167Z,60.82
2023-05-04T09:36:21.341Z,60.99
2023-05-04T09:37:11.084Z,61.25
2023-05-04T09:38:11.077Z,61.13
2023-05-04T09:39:15.166Z,60.72
2023-05-04T09:40:11.100Z,60.60
2023-05-04T09:41:11.124Z,60.26
2023-05-04T09:42:17.082Z,60.03
2023-05-04T09:43:11.087Z,60.03
2023-05-04T09:44:19.090Z,60.08
2023-05-04T09:45:11.085Z,59.69
2023-05-04T09:46:17.114Z,59.67
2023-05-04T09:47:11.095Z,59.96
2023-05-04T09:48:19.172Z,59.77
2023-05-04T09:49:11.085Z,59.99
2023-05-04T09:50:19.066Z,59.85
2023-05-04T09:51:11.102Z,59.95
2023-05-04T09:52:11.106Z,59.83
2023-05-04T09:53:11.089Z,59.98
2023-05-04T09:54:11.090Z,60.45
2023-05-04T09:55:12.088Z,60.73
2023-05-04T09:56:17.089Z,60.81
2023-05-04T09:57:15.110Z,60.65
2023-05-04T09:58:11.086Z,60.58
2023-05-04T09:59:11.082Z,60.56
2023-05-04T10:00:13.104Z,60.60
2023-05-04T10:01:11.176Z,60.43
2023-05-04T10:02:22.131Z,60.39
2023-05-04T10:03:13.055Z,60.50
2023-05-04T10:04:11.062Z,60.27
2023-05-04T10:05:13.107Z,59.88
2023-05-04T10:06:11.068Z,60.25
2023-05-04T10:07:11.065Z,59.97
2023-05-04T10:08:11.062Z,59.72
2023-05-04T10:09:11.063Z,59.38
2023-05-04T10:10:11.081Z,59.27
2023-05-04T10:11:11.068Z,59.51
2023-05-04T10:12:11.062Z,58.99
2023-05-04T10:13:11.140Z,58.29
2023-05-04T10:14:11.062Z,57.75
2023-05-04T10:15:11.077Z,57.55
2023-05-04T10:16:21.143Z,57.56
2023-05-04T10:17:19.060Z,57.66
2023-05-04T10:18:19.069Z,57.53
2023-05-04T10:19:19.072Z,57.08
2023-05-04T10:20:19.071Z,57.13
2023-05-04T10:21:19.092Z,57.05
2023-05-04T10:22:19.061Z,57.12
2023-05-04T10:23:19.072Z,57.17
2023-05-04T10:24:19.072Z,57.02
2023-05-04T10:25:21.070Z,57.54
2023-05-04T10:26:19.065Z,57.59
2023-05-04T10:27:18.060Z,57.63
2023-05-04T10:28:21.069Z,57.68
2023-05-04T10:29:20.584Z,57.59
2023-05-04T10:30:11.066Z,57.48
2023-05-04T10:31:11.114Z,57.64
2023-05-04T10:32:17.068Z,57.60
2023-05-04T10:33:11.092Z,57.84
2023-05-04T10:34:11.066Z,57.54
2023-05-04T10:35:11.065Z,57.78
2023-05-04T10:36:11.080Z,57.70
2023-05-04T10:37:20.098Z,57.75
2023-05-04T10:38:11.067Z,57.80
2023-05-04T10:39:20.089Z,57.98
2023-05-04T10:40:11.076Z,57.51
2023-05-04T10:41:17.069Z,57.70
2023-05-04T10:42:11.068Z,57.77
2023-05-04T10:43:15.078Z,57.38
2023-05-04T10:44:11.068Z,57.11
2023-05-04T10:45:11.081Z,56.91
2023-05-04T10:46:19.082Z,56.63
2023-05-04T10:47:11.071Z,56.76
2023-05-04T10:48:11.103Z,56.80
2023-05-04T10:49:16.073Z,56.54
2023-05-04T10:50:11.076Z,56.76
2023-05-04T10:51:17.072Z,56.56
2023-05-04T10:52:14.070Z,56.79
2023-05-04T10:53:11.109Z,56.59
2023-05-04T10:54:17.083Z,56.50
2023-05-04T10:55:11.069Z,56.49
2023-05-04T10:56:15.073Z,55.98
2023-05-04T10:57:12.076Z,55.74
2023-05-04T10:58:11.068Z,55.19
2023-05-04T10:59:11.069Z,54.68
2023-05-04T11:00:11.072Z,54.86
2023-05-04T11:01:13.084Z,54.59
2023-05-04T11:02:11.079Z,53.92
2023-05-04T11:03:11.218Z,54.28
2023-05-04T11:04:19.074Z,53.77
2023-05-04T11:05:11.072Z,53.99
2023-05-04T11:06:23.161Z,53.61
2023-05-04T11:07:11.071Z,53.33
2023-05-04T11:08:15.070Z,53.07
2023-05-04T11:09:14.070Z,53.05
2023-05-04T11:10:15.132Z,52.88
2023-05-04T11:11:12.074Z,52.69
2023-05-04T11:12:11.074Z,52.09
2023-05-04T11:13:12.158Z,52.34
2023-05-04T11:14:11.082Z,52.29
2023-05-04T11:15:11.073Z,52.28
2023-05-04T11:16:11.113Z,52.23
2023-05-04T11:17:26.916Z,52.20
2023-05-04T11:18:13.188Z,52.44
2023-05-04T11:19:11.083Z,52.50
2023-05-04T11:20:11.082Z,52.21
2023-05-04T11:21:11.073Z,52.21
2023-05-04T11:22:11.072Z,52.17
2023-05-04T11:23:17.097Z,52.50
2023-05-04T11:24:11.073Z,52.58
2023-05-04T11:25:11.077Z,52.76
2023-05-04T11:26:11.081Z,52.41
2023-05-04T11:27:15.069Z,52.32
2023-05-04T11:28:11.088Z,52.52
2023-05-04T11:29:15.080Z,52.44
2023-05-04T11:30:11.111Z,52.12
2023-05-04T11:31:15.154Z,52.33
2023-05-04T11:32:11.097Z,52.17
2023-05-04T11:33:13.078Z,51.91
2023-05-04T11:34:15.074Z,51.84
2023-05-04T11:35:15.081Z,51.86
2023-05-04T11:36:11.075Z,51.73
2023-05-04T11:37:11.075Z,51.92
2023-05-04T11:38:11.078Z,51.73
2023-05-04T11:39:12.082Z,52.10
2023-05-04T11:40:15.148Z,51.99
2023-05-04T11:41:11.079Z,51.96
2023-05-04T11:42:11.092Z,52.01
2023-05-04T11:43:12.106Z,51.64
2023-05-04T11:44:11.076Z,51.38
2023-05-04T11:45:19.085Z,51.45
2023-05-04T11:46:11.119Z,51.92
2023-05-04T11:47:11.081Z,51.81
2023-05-04T11:48:11.114Z,51.68
2023-05-04T11:49:11.083Z,51.61
2023-05-04T11:50:11.090Z,52.08
2023-05-04T11:51:11.079Z,52.02
2023-05-04T11:52:11.096Z,52.40
2023-05-04T11:53:11.083Z,52.09
2023-05-04T11:54:19.077Z,52.49
2023-05-04T11:55:11.091Z,52.07
2023-05-04T11:56:11.124Z,52.02
2023-05-04T11:57:15.086Z,51.88
2023-05-04T11:58:11.087Z,51.56
2023-05-04T11:59:11.087Z,51.72
2023-05-04T12:00:11.081Z,51.63
2023-05-04T12:01:11.082Z,51.45
2023-05-04T12:02:17.103Z,51.46
2023-05-04T12:03:14.209Z,51.47
2023-05-04T12:04:11.147Z,51.63
2023-05-04T12:05:14.158Z,51.52
2023-05-04T12:06:11.112Z,51.43
2023-05-04T12:07:11.084Z,51.35
2023-05-04T12:08:11.093Z,51.22
2023-05-04T12:09:11.088Z,51.13
2023-05-04T12:10:11.077Z,50.97
2023-05-04T12:11:19.138Z,51.18
2023-05-04T12:12:11.082Z,51.17
2023-05-04T12:13:17.110Z,51.30
2023-05-04T12:14:11.084Z,51.53
2023-05-04T12:15:11.090Z,51.42
2023-05-04T12:16:13.174Z,52.14
2023-05-04T12:17:11.077Z,52.31
2023-05-04T12:18:15.094Z,52.21
2023-05-04T12:19:13.437Z,52.21
2023-05-04T12:20:11.115Z,52.33
2023-05-04T12:21:18.101Z,52.14
2023-05-04T12:22:11.090Z,52.14
2023-05-04T12:23:11.085Z,52.17
2023-05-04T12:24:11.086Z,52.13
2023-05-04T12:25:11.118Z,52.12
2023-05-04T12:26:11.097Z,51.94
2023-05-04T12:27:15.105Z,51.74
2023-05-04T12:28:11.088Z,51.78
2023-05-04T12:29:11.086Z,51.82
2023-05-04T12:30:11.178Z,51.61
2023-05-04T12:31:11.196Z,51.96
2023-05-04T12:32:11.135Z,52.26
2023-05-04T12:33:11.084Z,52.15
2023-05-04T12:34:11.084Z,51.92
2023-05-04T12:35:11.086Z,51.99
2023-05-04T12:36:11.084Z,51.96
2023-05-04T12:37:11.087Z,52.17
2023-05-04T12:38:11.088Z,52.52
2023-05-04T12:39:11.104Z,52.67
2023-05-04T12:40:20.923Z,52.64
2023-05-04T12:41:13.090Z,52.65
2023-05-04T12:42:11.085Z,52.49
2023-05-04T12:43:11.085Z,52.29
2023-05-04T12:44:12.104Z,52.12
2023-05-04T12:45:11.089Z,51.95
2023-05-04T12:46:11.145Z,51.61
2023-05-04T12:47:11.093Z,52.13
2023-05-04T12:48:11.089Z,51.96
2023-05-04T12:49:11.094Z,52.00
2023-05-04T12:50:11.130Z,52.22
2023-05-04T12:51:11.089Z,52.31
2023-05-04T12:52:11.088Z,52.37
2023-05-04T12:53:11.092Z,52.82